createdAt,value
2023-05-24T00:00:52.482Z,10.99
2023-05-24T00:03:25.619Z,10.98
2023-05-24T00:05:58.019Z,10.92
2023-05-24T00:08:30.369Z,10.90
2023-05-24T00:11:02.674Z,10.87
2023-05-24T00:13:34.997Z,10.87
2023-05-24T00:16:07.282Z,10.80
2023-05-24T00:18:40.594Z,10.79
2023-05-24T00:21:13.549Z,10.74
2023-05-24T00:23:46.815Z,10.76
2023-05-24T00:26:19.151Z,10.64
2023-05-24T00:28:58.611Z,10.57
2023-05-24T00:31:31.015Z,10.55
2023-05-24T00:34:04.084Z,10.48
2023-05-24T00:36:37.516Z,10.46
2023-05-24T00:39:09.852Z,10.42
2023-05-24T00:41:42.200Z,10.43
2023-05-24T00:44:15.226Z,10.46
2023-05-24T00:46:48.037Z,10.41
2023-05-24T00:49:22.816Z,10.40
2023-05-24T00:51:55.262Z,10.29
2023-05-24T00:54:28.303Z,10.28
2023-05-24T00:57:01.494Z,10.27
2023-05-24T00:59:34.125Z,10.32
2023-05-24T01:02:06.602Z,10.33
2023-05-24T01:04:39.706Z,10.28
2023-05-24T01:07:20.603Z,10.18
2023-05-24T01:10:03.489Z,10.16
2023-05-24T01:12:50.569Z,10.08
2023-05-24T01:15:28.142Z,10.08
2023-05-24T01:18:07.016Z,10.05
2023-05-24T01:20:41.502Z,10.03
2023-05-24T01:23:33.914Z,10.06
2023-05-24T01:26:18.978Z,10.05
2023-05-24T01:28:53.911Z,10.07
2023-05-24T01:31:26.739Z,10.00
2023-05-24T01:33:59.084Z,9.93
2023-05-24T01:36:31.414Z,9.91
2023-05-24T01:39:05.002Z,9.93
2023-05-24T01:41:41.126Z,9.93
2023-05-24T01:44:24.858Z,9.87
2023-05-24T01:47:04.372Z,9.94
2023-05-24T01:49:38.486Z,9.88
2023-05-24T01:52:15.597Z,9.74
2023-05-24T01:54:52.027Z,9.81
2023-05-24T01:57:26.524Z,9.76
2023-05-24T02:00:01.932Z,9.74
2023-05-24T02:02:45.468Z,9.79
2023-05-24T02:05:17.945Z,9.86
2023-05-24T02:07:50.802Z,9.82
2023-05-24T02:10:23.342Z,9.74
2023-05-24T02:12:55.769Z,9.54
2023-05-24T02:15:29.685Z,9.59
2023-05-24T02:18:03.561Z,9.54
2023-05-24T02:20:36.433Z,9.50
2023-05-24T02:23:08.819Z,9.45
2023-05-24T02:25:42.722Z,9.46
2023-05-24T02:28:15.327Z,9.51
2023-05-24T02:30:48.406Z,9.57
2023-05-24T02:33:20.861Z,9.38
2023-05-24T02:35:53.195Z,9.44
2023-05-24T02:38:25.846Z,9.47
2023-05-24T02:40:58.210Z,9.52
2023-05-24T02:43:30.548Z,9.50
2023-05-24T02:46:03.617Z,9.41
2023-05-24T02:48:36.350Z,9.32
2023-05-24T02:51:08.761Z,9.33
2023-05-24T02:53:42.809Z,9.33
2023-05-24T02:56:16.817Z,9.27
2023-05-24T02:58:49.286Z,9.30
2023-05-24T03:01:22.753Z,9.32
2023-05-24T03:03:56.982Z,9.31
2023-05-24T03:06:29.386Z,9.36
2023-05-24T03:09:02.017Z,9.18
2023-05-24T03:11:34.893Z,9.24
2023-05-24T03:14:09.374Z,9.16
2023-05-24T03:16:42.701Z,9.15
2023-05-24T03:19:16.641Z,9.16
2023-05-24T03:21:49.010Z,9.13
2023-05-24T03:24:21.372Z,9.13
2023-05-24T03:26:54.160Z,9.05
2023-05-24T03:29:26.937Z,9.06
2023-05-24T03:32:00.979Z,9.06
2023-05-24T03:34:33.345Z,9.00
2023-05-24T03:37:06.117Z,9.08
2023-05-24T03:39:38.474Z,9.13
2023-05-24T03:42:33.804Z,9.16
2023-05-24T03:45:07.533Z,9.15
2023-05-24T03:47:40.684Z,9.23
2023-05-24T03:50:13.668Z,9.19
2023-05-24T03:52:47.104Z,9.17
2023-05-24T03:55:19.605Z,9.19
2023-05-24T03:57:54.902Z,9.21
2023-05-24T04:00:27.257Z,9.26
2023-05-24T04:03:01.010Z,9.31
2023-05-24T04:05:35.005Z,9.34
2023-05-24T04:08:07.664Z,9.43
2023-05-24T04:10:43.303Z,9.45
2023-05-24T04:13:17.209Z,9.38
2023-05-24T04:15:49.531Z,9.42
2023-05-24T04:18:22.607Z,9.43
2023-05-24T04:20:55.344Z,9.47
2023-05-24T04:23:27.624Z,9.48
2023-05-24T04:26:00.005Z,9.51
2023-05-24T04:28:32.987Z,9.57
2023-05-24T04:31:06.080Z,9.63
2023-05-24T04:33:39.069Z,9.71
2023-05-24T04:36:12.698Z,9.75
2023-05-24T04:38:45.635Z,9.77
2023-05-24T04:41:17.924Z,9.88
2023-05-24T04:43:50.210Z,9.97
2023-05-24T04:46:22.651Z,10.11
2023-05-24T04:48:58.470Z,10.20
2023-05-24T04:51:31.001Z,10.30
2023-05-24T04:54:07.961Z,10.39
2023-05-24T04:56:40.515Z,10.49
2023-05-24T04:59:12.785Z,10.56
2023-05-24T05:01:45.338Z,10.68
2023-05-24T05:04:18.880Z,10.79
2023-05-24T05:06:51.813Z,10.87
2023-05-24T05:09:24.173Z,10.96
2023-05-24T05:11:56.477Z,11.08
2023-05-24T05:14:28.983Z,11.11
2023-05-24T05:17:01.328Z,11.34
2023-05-24T05:19:35.074Z,11.51
2023-05-24T05:22:07.420Z,11.71
2023-05-24T05:24:39.765Z,11.91
2023-05-24T05:27:12.093Z,12.15
2023-05-24T05:29:44.454Z,12.38
2023-05-24T05:32:16.828Z,12.54
2023-05-24T05:34:49.830Z,12.62
2023-05-24T05:37:22.208Z,12.88
2023-05-24T05:39:54.530Z,13.11
2023-05-24T05:42:26.899Z,13.33
2023-05-24T05:44:59.202Z,13.59
2023-05-24T05:47:31.563Z,13.82
2023-05-24T05:50:05.349Z,14.09
2023-05-24T05:52:38.105Z,14.29
2023-05-24T05:55:11.520Z,14.49
2023-05-24T05:57:43.870Z,14.68
2023-05-24T06:00:17.032Z,14.88
2023-05-24T06:02:49.567Z,15.07
2023-05-24T06:05:22.639Z,15.26
2023-05-24T06:07:55.017Z,15.44
2023-05-24T06:10:27.405Z,15.66
2023-05-24T06:13:01.623Z,15.91
2023-05-24T06:15:33.905Z,15.94
2023-05-24T06:18:07.199Z,16.29
2023-05-24T06:20:40.367Z,16.56
2023-05-24T06:23:12.870Z,16.69
2023-05-24T06:25:45.223Z,16.74
2023-05-24T06:28:17.562Z,16.84
2023-05-24T06:30:50.013Z,17.00
2023-05-24T06:33:22.425Z,17.29
2023-05-24T06:35:55.584Z,17.36
2023-05-24T06:38:27.978Z,17.43
2023-05-24T06:41:00.395Z,17.60
2023-05-24T06:43:33.133Z,17.58
2023-05-24T06:46:05.564Z,17.67
2023-05-24T06:48:37.969Z,17.82
2023-05-24T06:51:11.070Z,17.76
2023-05-24T06:53:43.914Z,17.77
2023-05-24T06:56:16.351Z,17.84
2023-05-24T06:58:48.708Z,18.00
2023-05-24T07:01:21.743Z,18.10
2023-05-24T07:03:54.222Z,18.27
2023-05-24T07:06:27.212Z,18.33
2023-05-24T07:09:01.154Z,18.39
2023-05-24T07:11:33.517Z,18.48
2023-05-24T07:14:05.962Z,18.60
2023-05-24T07:16:38.364Z,18.68
2023-05-24T07:19:10.723Z,18.69
2023-05-24T07:21:43.699Z,18.82
2023-05-24T07:24:16.458Z,18.84
2023-05-24T07:26:49.417Z,18.90
2023-05-24T07:29:21.760Z,18.90
2023-05-24T07:31:55.708Z,18.96
2023-05-24T07:34:29.447Z,19.14
2023-05-24T07:37:03.022Z,19.26
2023-05-24T07:39:35.393Z,19.36
2023-05-24T07:42:07.835Z,19.28
2023-05-24T07:44:40.171Z,19.32
2023-05-24T07:47:12.481Z,19.45
2023-05-24T07:49:44.957Z,19.61
2023-05-24T07:52:17.914Z,19.65
2023-05-24T07:54:50.319Z,19.75
2023-05-24T07:57:23.098Z,19.89
2023-05-24T07:59:55.450Z,20.02
2023-05-24T08:02:28.305Z,20.15
2023-05-24T08:05:01.222Z,20.35
2023-05-24T08:07:34.541Z,20.40
2023-05-24T08:10:09.685Z,20.26
2023-05-24T08:12:42.207Z,20.35
2023-05-24T08:15:14.598Z,20.35
2023-05-24T08:17:47.744Z,20.38
2023-05-24T08:20:20.277Z,20.46
2023-05-24T08:22:53.331Z,20.79
2023-05-24T08:25:26.548Z,20.85
2023-05-24T08:27:58.910Z,20.88
2023-05-24T08:30:31.598Z,20.87
2023-05-24T08:33:04.146Z,20.88
2023-05-24T08:35:36.477Z,20.94
2023-05-24T08:38:09.537Z,20.99
2023-05-24T08:40:42.743Z,21.07
2023-05-24T08:43:15.360Z,21.38
2023-05-24T08:45:49.471Z,21.45
2023-05-24T08:48:23.881Z,21.55
2023-05-24T08:50:57.909Z,21.88
2023-05-24T08:53:34.349Z,21.85
2023-05-24T08:56:08.251Z,21.88
2023-05-24T08:58:41.001Z,21.72
2023-05-24T09:01:13.896Z,21.75
2023-05-24T09:03:47.398Z,21.90
2023-05-24T09:06:19.817Z,22.12
2023-05-24T09:08:53.402Z,22.08
2023-05-24T09:11:26.898Z,21.98
2023-05-24T09:14:02.410Z,22.02
2023-05-24T09:16:35.327Z,22.18
2023-05-24T09:19:07.664Z,22.49
2023-05-24T09:21:40.360Z,22.49
2023-05-24T09:24:13.726Z,22.56
2023-05-24T09:26:48.999Z,22.67
2023-05-24T09:29:23.763Z,22.72
2023-05-24T09:31:56.753Z,23.02
2023-05-24T09:34:29.138Z,23.26
2023-05-24T09:37:02.162Z,23.33
2023-05-24T09:39:35.335Z,23.23
2023-05-24T09:42:07.827Z,23.35
2023-05-24T09:44:40.152Z,23.32
2023-05-24T09:47:13.098Z,23.44
2023-05-24T09:49:48.532Z,23.52
2023-05-24T09:52:22.564Z,23.66
2023-05-24T09:54:55.725Z,23.58
2023-05-24T09:57:28.091Z,23.60
2023-05-24T10:00:13.986Z,23.82
2023-05-24T10:02:53.505Z,23.78
2023-05-24T10:05:26.990Z,23.76
2023-05-24T10:08:00.362Z,23.68
2023-05-24T10:10:33.718Z,23.89
2023-05-24T10:13:06.895Z,23.83
2023-05-24T10:15:39.244Z,23.70
2023-05-24T10:18:13.853Z,24.10
2023-05-24T10:20:47.350Z,23.98
2023-05-24T10:23:24.121Z,24.16
2023-05-24T10:26:03.535Z,24.05
2023-05-24T10:28:40.440Z,24.23
2023-05-24T10:31:16.195Z,24.64
2023-05-24T10:33:51.213Z,24.54
2023-05-24T10:36:25.446Z,24.67
2023-05-24T10:38:58.049Z,24.88
2023-05-24T10:41:39.431Z,24.92
2023-05-24T10:44:12.741Z,25.31
2023-05-24T10:47:08.083Z,25.03
2023-05-24T10:49:49.955Z,24.89
2023-05-24T10:52:33.775Z,24.88
2023-05-24T10:55:08.893Z,25.06
2023-05-24T10:57:41.951Z,25.36
2023-05-24T11:03:08.767Z,25.18
2023-05-24T11:05:52.975Z,25.07
2023-05-24T11:08:30.344Z,25.16
2023-05-24T11:11:22.381Z,24.77
2023-05-24T11:14:01.038Z,25.01
2023-05-24T11:16:34.577Z,25.12
2023-05-24T11:19:16.621Z,24.90
2023-05-24T11:21:50.840Z,25.09
2023-05-24T11:24:24.683Z,25.58
2023-05-24T11:26:57.806Z,25.36
2023-05-24T11:29:30.869Z,25.39
2023-05-24T11:32:04.120Z,25.46
2023-05-24T11:34:39.374Z,25.83
2023-05-24T11:37:13.936Z,25.92
2023-05-24T11:39:51.888Z,25.85
2023-05-24T11:42:24.276Z,25.89
2023-05-24T11:44:57.332Z,25.65
2023-05-24T11:47:29.737Z,25.36
2023-05-24T11:50:02.972Z,25.73
2023-05-24T11:52:39.411Z,26.12
2023-05-24T11:55:14.965Z,26.06
2023-05-24T11:57:57.599Z,26.06
2023-05-24T12:00:31.148Z,26.03
2023-05-24T12:03:06.865Z,26.37
2023-05-24T12:05:39.275Z,26.31
2023-05-24T12:08:13.473Z,26.10
2023-05-24T12:10:48.224Z,25.98
2023-05-24T12:13:22.924Z,26.35
2023-05-24T12:15:57.483Z,26.50
2023-05-24T12:18:30.294Z,26.14
2023-05-24T12:21:08.550Z,25.74
2023-05-24T12:23:40.900Z,25.58
2023-05-24T12:26:15.536Z,25.65
2023-05-24T12:28:53.793Z,25.87
2023-05-24T12:31:27.257Z,25.97
2023-05-24T12:33:59.665Z,25.67
2023-05-24T12:36:32.736Z,25.92
2023-05-24T12:39:21.597Z,25.73
2023-05-24T12:41:55.348Z,25.60
2023-05-24T12:44:28.812Z,25.68
2023-05-24T12:47:03.681Z,25.47
2023-05-24T12:49:36.421Z,25.55
2023-05-24T12:52:08.914Z,25.48
2023-05-24T12:54:41.314Z,25.03
2023-05-24T12:57:13.815Z,25.19
2023-05-24T12:59:46.720Z,25.29
2023-05-24T13:02:19.804Z,25.17
2023-05-24T13:04:59.805Z,25.05
2023-05-24T13:07:32.199Z,24.76
2023-05-24T13:10:05.495Z,24.53
2023-05-24T13:12:38.528Z,24.83
2023-05-24T13:15:11.914Z,24.75
2023-05-24T13:17:45.218Z,24.89
2023-05-24T13:20:21.328Z,24.87
2023-05-24T13:22:53.682Z,24.61
2023-05-24T13:25:26.446Z,24.58
2023-05-24T13:27:59.293Z,24.75
2023-05-24T13:30:31.677Z,24.79
2023-05-24T13:33:05.199Z,24.79
2023-05-24T13:35:37.688Z,24.34
2023-05-24T13:38:10.333Z,24.48
2023-05-24T13:40:42.976Z,24.54
2023-05-24T13:43:15.665Z,24.92
2023-05-24T13:45:48.049Z,24.82
2023-05-24T13:48:21.089Z,24.72
2023-05-24T13:50:53.493Z,24.82
2023-05-24T13:53:27.647Z,24.69
2023-05-24T13:56:00.443Z,24.57
2023-05-24T13:58:32.922Z,24.37
2023-05-24T14:01:05.431Z,24.20
2023-05-24T14:03:40.275Z,23.84
2023-05-24T14:06:12.669Z,23.77
2023-05-24T14:08:45.272Z,23.52
2023-05-24T14:11:18.871Z,23.23
2023-05-24T14:14:57.174Z,23.00
2023-05-24T14:16:50.984Z,22.92
2023-05-24T14:19:23.994Z,23.02
2023-05-24T14:21:56.469Z,22.90
2023-05-24T14:24:28.791Z,22.52
2023-05-24T14:27:01.596Z,22.15
2023-05-24T14:29:33.940Z,21.93
2023-05-24T14:32:06.445Z,21.84
2023-05-24T14:34:39.692Z,21.94
2023-05-24T14:37:12.034Z,21.97
2023-05-24T14:39:44.383Z,21.42
2023-05-24T14:42:16.779Z,21.52
2023-05-24T14:44:49.102Z,21.74
2023-05-24T14:47:21.419Z,21.79
2023-05-24T14:49:54.434Z,21.96
2023-05-24T14:52:27.022Z,21.82
2023-05-24T14:54:59.342Z,21.73
2023-05-24T14:57:31.704Z,22.01
2023-05-24T15:00:05.056Z,21.99
2023-05-24T15:02:37.748Z,22.08
2023-05-24T15:05:10.851Z,21.92
2023-05-24T15:07:43.187Z,22.03
2023-05-24T15:10:15.516Z,22.19
2023-05-24T15:12:48.211Z,22.22
2023-05-24T15:15:21.842Z,22.28
2023-05-24T15:17:54.291Z,22.52
2023-05-24T15:20:27.463Z,22.62
2023-05-24T15:22:59.973Z,22.54
2023-05-24T15:25:32.792Z,22.68
2023-05-24T15:28:05.147Z,22.66
2023-05-24T15:30:37.451Z,22.58
2023-05-24T15:33:10.062Z,22.57
2023-05-24T15:35:43.312Z,22.50
2023-05-24T15:38:16.950Z,22.51
2023-05-24T15:40:49.333Z,22.41
2023-05-24T15:43:21.706Z,22.11
2023-05-24T15:46:14.249Z,22.22
2023-05-24T15:48:46.662Z,22.40
2023-05-24T15:51:57.521Z,22.48
2023-05-24T15:54:12.158Z,22.43
2023-05-24T15:56:44.516Z,22.42
2023-05-24T15:59:16.833Z,22.26
2023-05-24T16:01:49.182Z,22.17
2023-05-24T16:07:35.991Z,22.11
2023-05-24T16:10:08.509Z,21.98
2023-05-24T16:12:41.026Z,21.99
2023-05-24T16:15:15.818Z,21.95
2023-05-24T16:17:48.183Z,22.03
2023-05-24T16:20:32.538Z,21.99
2023-05-24T16:23:05.606Z,22.01
2023-05-24T16:25:37.925Z,21.93
2023-05-24T16:28:10.276Z,21.93
2023-05-24T16:30:42.782Z,21.96
2023-05-24T16:33:15.491Z,21.76
2023-05-24T16:35:54.347Z,21.76
2023-05-24T16:38:27.373Z,21.70
2023-05-24T16:40:59.667Z,21.66
2023-05-24T16:43:32.156Z,21.58
2023-05-24T16:46:04.718Z,21.52
2023-05-24T16:48:37.083Z,21.06
2023-05-24T16:51:09.689Z,21.16
2023-05-24T16:53:42.702Z,21.19
2023-05-24T16:56:15.194Z,21.10
2023-05-24T16:58:47.522Z,20.89
2023-05-24T17:01:19.961Z,21.01
2023-05-24T17:03:52.490Z,20.99
2023-05-24T17:06:28.026Z,20.96
2023-05-24T17:09:01.468Z,21.03
2023-05-24T17:11:33.804Z,21.09
2023-05-24T17:14:06.444Z,21.03
2023-05-24T17:16:38.862Z,21.01
2023-05-24T17:19:13.221Z,20.98
2023-05-24T17:21:45.560Z,20.95
2023-05-24T17:24:24.490Z,20.91
2023-05-24T17:26:56.845Z,20.85
2023-05-24T17:29:29.551Z,20.82
2023-05-24T17:32:02.089Z,20.61
2023-05-24T17:34:34.540Z,20.40
2023-05-24T17:37:06.896Z,20.27
2023-05-24T17:39:39.885Z,20.11
2023-05-24T17:42:12.207Z,20.07
2023-05-24T17:44:44.556Z,19.85
2023-05-24T17:47:16.911Z,19.84
2023-05-24T17:49:49.265Z,19.64
2023-05-24T17:52:21.617Z,19.67
2023-05-24T17:54:55.975Z,19.59
2023-05-24T17:57:28.376Z,19.53
2023-05-24T18:00:01.327Z,19.45
2023-05-24T18:02:33.714Z,19.40
2023-05-24T18:05:06.984Z,19.27
2023-05-24T18:07:39.395Z,19.22
2023-05-24T18:10:12.557Z,19.16
2023-05-24T18:12:44.885Z,18.99
2023-05-24T18:15:17.268Z,18.80
2023-05-24T18:17:49.859Z,18.76
2023-05-24T18:20:22.347Z,18.72
2023-05-24T18:22:54.694Z,18.64
2023-05-24T18:25:27.705Z,18.35
2023-05-24T18:28:00.185Z,18.42
2023-05-24T18:30:32.826Z,18.40
2023-05-24T18:33:08.213Z,18.45
2023-05-24T18:35:41.001Z,18.50
2023-05-24T18:38:13.570Z,18.46
2023-05-24T18:40:51.553Z,18.44
2023-05-24T18:43:23.857Z,18.49
2023-05-24T18:45:56.228Z,18.54
2023-05-24T18:48:28.622Z,18.51
2023-05-24T18:51:01.648Z,18.40
2023-05-24T18:53:34.072Z,18.27
2023-05-24T18:56:07.075Z,18.38
2023-05-24T18:58:40.676Z,18.40
2023-05-24T19:01:13.120Z,18.41
2023-05-24T19:03:45.468Z,18.40
2023-05-24T19:06:17.905Z,18.43
2023-05-24T19:08:50.464Z,18.44
2023-05-24T19:11:23.464Z,18.46
2023-05-24T19:13:55.826Z,18.28
2023-05-24T19:16:28.241Z,18.32
2023-05-24T19:19:01.066Z,18.39
2023-05-24T19:21:33.461Z,18.28
2023-05-24T19:24:06.484Z,18.34
2023-05-24T19:26:39.482Z,18.44
2023-05-24T19:29:11.813Z,18.45
2023-05-24T19:31:50.020Z,18.47
2023-05-24T19:34:22.425Z,18.55
2023-05-24T19:36:55.299Z,18.53
2023-05-24T19:39:27.602Z,18.55
2023-05-24T19:42:01.072Z,18.54
2023-05-24T19:44:33.603Z,18.54
2023-05-24T19:47:06.402Z,18.52
2023-05-24T19:49:38.736Z,18.50
2023-05-24T19:52:11.164Z,18.48
2023-05-24T19:54:43.534Z,18.48
2023-05-24T19:57:16.584Z,18.48
2023-05-24T19:59:48.916Z,18.47
2023-05-24T20:02:21.232Z,18.45
2023-05-24T20:04:53.560Z,18.41
2023-05-24T20:07:25.919Z,18.38
2023-05-24T20:09:58.523Z,18.31
2023-05-24T20:12:33.800Z,18.27
2023-05-24T20:15:07.809Z,18.22
2023-05-24T20:17:40.673Z,18.20
2023-05-24T20:20:13.100Z,18.12
2023-05-24T20:22:45.539Z,18.07
2023-05-24T20:25:19.130Z,18.02
2023-05-24T20:27:52.202Z,17.96
2023-05-24T20:30:24.939Z,17.92
2023-05-24T20:32:57.223Z,17.87
2023-05-24T20:35:30.424Z,17.80
2023-05-24T20:38:02.778Z,17.74
2023-05-24T20:40:35.094Z,17.71
2023-05-24T20:43:08.185Z,17.67
2023-05-24T20:45:41.016Z,17.67
2023-05-24T20:48:13.659Z,17.49
2023-05-24T20:50:46.005Z,17.48
2023-05-24T20:53:18.420Z,17.44
2023-05-24T20:55:50.802Z,17.40
2023-05-24T20:58:23.797Z,17.24
2023-05-24T21:00:56.256Z,17.21
2023-05-24T21:03:29.317Z,17.14
2023-05-24T21:06:01.969Z,17.04
2023-05-24T21:08:34.330Z,16.99
2023-05-24T21:11:06.747Z,16.88
2023-05-24T21:13:40.481Z,16.70
2023-05-24T21:16:12.864Z,16.56
2023-05-24T21:18:45.229Z,16.52
2023-05-24T21:21:17.670Z,16.44
2023-05-24T21:23:49.987Z,16.54
2023-05-24T21:26:22.370Z,16.55
2023-05-24T21:28:55.402Z,16.56
2023-05-24T21:31:29.905Z,16.43
2023-05-24T21:34:02.505Z,16.41
2023-05-24T21:36:35.697Z,16.42
2023-05-24T21:39:08.080Z,16.35
2023-05-24T21:41:40.765Z,16.37
2023-05-24T21:44:13.912Z,16.34
2023-05-24T21:46:46.289Z,16.29
2023-05-24T21:49:19.388Z,16.29
2023-05-24T21:51:51.814Z,16.20
2023-05-24T21:54:24.215Z,16.20
2023-05-24T21:56:56.633Z,16.19
2023-05-24T21:59:29.595Z,16.17
2023-05-24T22:02:01.936Z,16.13
2023-05-24T22:04:34.290Z,16.10
2023-05-24T22:07:06.680Z,16.01
2023-05-24T22:09:39.266Z,15.89
2023-05-24T22:12:11.608Z,15.84
2023-05-24T22:14:44.689Z,15.82
2023-05-24T22:17:17.062Z,15.76
2023-05-24T22:19:49.404Z,15.81
2023-05-24T22:22:22.142Z,15.83
2023-05-24T22:24:54.565Z,15.84
2023-05-24T22:27:27.046Z,15.68
2023-05-24T22:30:01.249Z,15.65
2023-05-24T22:32:33.999Z,15.70
2023-05-24T22:35:07.100Z,15.50
2023-05-24T22:37:39.455Z,15.52
2023-05-24T22:40:12.823Z,15.37
2023-05-24T22:42:45.168Z,15.39
2023-05-24T22:45:18.447Z,15.33
2023-05-24T22:47:50.820Z,15.22
2023-05-24T22:50:23.182Z,15.17
2023-05-24T22:52:55.955Z,15.09
2023-05-24T22:55:28.247Z,15.02
2023-05-24T22:58:01.123Z,14.99
2023-05-24T23:00:34.133Z,14.96
2023-05-24T23:03:07.069Z,14.93
2023-05-24T23:05:40.418Z,14.92
2023-05-24T23:08:12.858Z,14.76
2023-05-24T23:10:46.164Z,14.75
2023-05-24T23:13:18.552Z,14.74
2023-05-24T23:15:51.537Z,14.57
2023-05-24T23:18:25.651Z,14.64
2023-05-24T23:20:59.821Z,14.56
2023-05-24T23:23:32.156Z,14.52
2023-05-24T23:26:04.508Z,14.44
2023-05-24T23:28:36.873Z,14.41
2023-05-24T23:31:10.228Z,14.46
2023-05-24T23:33:42.571Z,14.31
2023-05-24T23:36:15.022Z,14.31
2023-05-24T23:38:47.367Z,14.27
2023-05-24T23:41:19.795Z,14.30
2023-05-24T23:43:52.119Z,14.33
2023-05-24T23:46:25.128Z,14.34
2023-05-24T23:48:57.523Z,14.35
2023-05-24T23:51:32.534Z,14.18
2023-05-24T23:54:05.076Z,14.17
2023-05-24T23:56:38.467Z,14.13
2023-05-24T23:59:10.956Z,14.03
